createdAt,value
2022-11-12T00:01:21.303Z,25.22
2022-11-12T00:04:10.172Z,25.26
2022-11-12T00:07:00.208Z,25.25
2022-11-12T00:09:48.925Z,25.22
2022-11-12T00:12:37.522Z,25.23
2022-11-12T00:15:26.472Z,25.23
2022-11-12T00:18:15.131Z,25.25
2022-11-12T00:21:03.912Z,25.24
2022-11-12T00:23:53.960Z,25.23
2022-11-12T00:26:42.485Z,25.21
2022-11-12T00:29:31.259Z,25.23
2022-11-12T00:32:20.868Z,25.19
2022-11-12T00:35:13.709Z,25.25
2022-11-12T00:38:02.895Z,25.25
2022-11-12T00:40:52.896Z,25.21
2022-11-12T00:43:41.525Z,25.22
2022-11-12T00:46:32.007Z,25.18
2022-11-12T00:49:20.732Z,25.19
2022-11-12T00:52:09.378Z,25.19
2022-11-12T00:54:57.992Z,25.18
2022-11-12T00:57:48.009Z,25.19
2022-11-12T01:00:36.702Z,25.21
2022-11-12T01:03:25.630Z,25.18
2022-11-12T01:06:16.763Z,25.18
2022-11-12T01:09:05.590Z,25.19
2022-11-12T01:11:54.184Z,25.20
2022-11-12T01:14:44.353Z,25.21
2022-11-12T01:17:33.278Z,25.19
2022-11-12T01:20:22.028Z,25.18
2022-11-12T01:23:10.676Z,25.18
2022-11-12T01:25:59.292Z,25.17
2022-11-12T01:28:48.026Z,25.17
2022-11-12T01:31:39.350Z,25.19
2022-11-12T01:34:28.417Z,25.18
2022-11-12T01:37:17.116Z,25.16
2022-11-12T01:40:06.807Z,25.17
2022-11-12T01:42:56.019Z,25.17
2022-11-12T01:45:47.406Z,25.18
2022-11-12T01:48:40.741Z,25.18
2022-11-12T01:51:34.749Z,25.20
2022-11-12T01:54:23.879Z,25.18
2022-11-12T01:57:14.195Z,25.17
2022-11-12T02:00:08.682Z,25.28
2022-11-12T02:03:02.446Z,25.24
2022-11-12T02:05:56.869Z,25.22
2022-11-12T02:08:46.380Z,25.21
2022-11-12T02:11:35.625Z,25.20
2022-11-12T02:14:23.388Z,25.23
2022-11-12T02:17:12.066Z,25.19
2022-11-12T02:20:00.820Z,25.18
2022-11-12T02:22:50.854Z,25.21
2022-11-12T02:25:39.563Z,25.17
2022-11-12T02:28:28.923Z,25.19
2022-11-12T02:31:17.672Z,25.21
2022-11-12T02:34:06.560Z,25.17
2022-11-12T02:36:55.200Z,25.16
2022-11-12T02:39:45.180Z,25.17
2022-11-12T02:42:33.909Z,25.17
2022-11-12T02:45:23.644Z,25.19
2022-11-12T02:48:17.953Z,25.18
2022-11-12T02:51:08.209Z,25.16
2022-11-12T02:53:56.860Z,25.18
2022-11-12T02:56:46.932Z,25.15
2022-11-12T02:59:35.699Z,25.15
2022-11-12T03:02:24.426Z,25.18
2022-11-12T03:05:13.832Z,25.18
2022-11-12T03:08:05.513Z,25.17
2022-11-12T03:10:54.620Z,25.15
2022-11-12T03:13:44.614Z,25.16
2022-11-12T03:16:33.277Z,25.13
2022-11-12T03:19:21.896Z,25.13
2022-11-12T03:22:10.456Z,25.16
2022-11-12T03:24:59.139Z,25.15
2022-11-12T03:27:50.597Z,25.17
2022-11-12T03:30:42.703Z,25.15
2022-11-12T03:33:31.416Z,25.14
2022-11-12T03:36:20.012Z,25.15
2022-11-12T03:39:09.815Z,25.14
2022-11-12T03:41:58.560Z,25.14
2022-11-12T03:44:47.163Z,25.13
2022-11-12T03:47:37.122Z,25.12
2022-11-12T03:50:27.714Z,25.14
2022-11-12T03:53:16.554Z,25.11
2022-11-12T03:56:05.375Z,25.13
2022-11-12T03:58:53.958Z,25.15
2022-11-12T04:01:42.607Z,25.15
2022-11-12T04:04:46.448Z,25.15
2022-11-12T04:07:52.904Z,25.15
2022-11-12T04:10:41.451Z,25.14
2022-11-12T04:13:33.037Z,25.11
2022-11-12T04:16:40.980Z,25.12
2022-11-12T04:19:47.163Z,25.14
2022-11-12T04:22:39.687Z,25.15
2022-11-12T04:25:46.208Z,25.12
2022-11-12T04:28:34.957Z,25.13
2022-11-12T04:31:22.614Z,25.12
2022-11-12T04:34:29.793Z,25.11
2022-11-12T04:37:23.231Z,25.09
2022-11-12T04:40:32.337Z,25.10
2022-11-12T04:43:38.703Z,25.10
2022-11-12T04:46:27.504Z,25.11
2022-11-12T04:49:16.148Z,25.13
2022-11-12T04:52:08.088Z,25.13
2022-11-12T04:54:57.147Z,25.12
2022-11-12T04:57:50.237Z,25.10
2022-11-12T05:00:38.872Z,25.11
2022-11-12T05:03:27.499Z,25.11
2022-11-12T05:06:29.939Z,25.13
2022-11-12T05:09:18.886Z,25.12
2022-11-12T05:12:07.946Z,25.13
2022-11-12T05:15:00.604Z,25.13
2022-11-12T05:17:49.238Z,25.11
2022-11-12T05:20:39.737Z,25.12
2022-11-12T05:23:28.263Z,25.15
2022-11-12T05:26:16.854Z,25.13
2022-11-12T05:29:08.685Z,25.12
2022-11-12T05:31:59.136Z,25.13
2022-11-12T05:34:47.786Z,25.11
2022-11-12T05:37:36.489Z,25.11
2022-11-12T05:40:25.077Z,25.09
2022-11-12T05:43:13.726Z,25.13
2022-11-12T05:46:02.404Z,25.13
2022-11-12T05:48:52.395Z,25.10
2022-11-12T05:51:40.985Z,25.09
2022-11-12T05:54:29.582Z,25.09
2022-11-12T05:57:20.031Z,25.13
2022-11-12T06:00:11.366Z,25.09
2022-11-12T06:03:00.013Z,25.10
2022-11-12T06:05:52.929Z,25.12
2022-11-12T06:08:42.273Z,25.14
2022-11-12T06:11:30.860Z,25.11
2022-11-12T06:14:19.424Z,25.11
2022-11-12T06:17:08.129Z,25.09
2022-11-12T06:19:56.783Z,25.11
2022-11-12T06:22:46.720Z,25.11
2022-11-12T06:25:35.555Z,25.11
2022-11-12T06:28:24.623Z,25.10
2022-11-12T06:31:13.832Z,25.09
2022-11-12T06:34:03.247Z,25.11
2022-11-12T06:36:51.830Z,25.10
2022-11-12T06:39:41.894Z,25.09
2022-11-12T06:42:30.515Z,25.09
2022-11-12T06:45:19.360Z,25.08
2022-11-12T06:48:08.027Z,25.09
2022-11-12T06:50:56.758Z,25.08
2022-11-12T06:53:45.625Z,25.09
2022-11-12T06:56:35.704Z,25.09
2022-11-12T06:59:24.320Z,25.08
2022-11-12T07:02:13.801Z,25.10
2022-11-12T07:05:02.438Z,25.08
2022-11-12T07:07:51.025Z,25.07
2022-11-12T07:10:42.103Z,25.07
2022-11-12T07:13:33.309Z,25.09
2022-11-12T07:16:22.520Z,25.10
2022-11-12T07:19:11.256Z,25.06
2022-11-12T07:21:59.874Z,25.06
2022-11-12T07:24:48.640Z,25.08
2022-11-12T07:27:37.448Z,25.07
2022-11-12T07:30:27.493Z,25.07
2022-11-12T07:33:16.151Z,25.05
2022-11-12T07:36:10.018Z,25.06
2022-11-12T07:38:58.809Z,25.04
2022-11-12T07:41:47.502Z,25.06
2022-11-12T07:44:36.163Z,25.08
2022-11-12T07:47:26.297Z,25.09
2022-11-12T07:50:15.102Z,25.08
2022-11-12T07:53:03.784Z,25.11
2022-11-12T07:55:56.060Z,25.10
2022-11-12T07:58:45.003Z,25.09
2022-11-12T08:01:38.921Z,25.10
2022-11-12T08:04:29.148Z,25.12
2022-11-12T08:07:17.993Z,25.14
2022-11-12T08:10:07.934Z,25.13
2022-11-12T08:12:57.773Z,25.12
2022-11-12T08:15:52.195Z,25.19
2022-11-12T08:18:41.780Z,25.17
2022-11-12T08:21:32.239Z,25.17
2022-11-12T08:24:22.261Z,25.18
2022-11-12T08:27:11.125Z,25.23
2022-11-12T08:30:00.075Z,25.28
2022-11-12T08:32:48.960Z,25.33
2022-11-12T08:35:40.588Z,25.49
2022-11-12T08:38:30.680Z,25.51
2022-11-12T08:41:19.404Z,25.49
2022-11-12T08:44:08.913Z,25.58
2022-11-12T08:46:57.707Z,25.80
2022-11-12T08:49:48.227Z,25.92
2022-11-12T08:52:37.027Z,26.15
2022-11-12T08:55:27.115Z,26.41
2022-11-12T08:58:15.870Z,26.32
2022-11-12T09:01:06.730Z,25.86
2022-11-12T09:03:55.488Z,26.02
2022-11-12T09:06:44.153Z,26.33
2022-11-12T09:09:32.981Z,26.49
2022-11-12T09:12:23.047Z,26.57
2022-11-12T09:18:20.754Z,26.65
2022-11-12T09:21:12.452Z,26.60
2022-11-12T09:24:01.171Z,26.72
2022-11-12T09:26:49.862Z,26.77
2022-11-12T09:29:39.956Z,26.78
2022-11-12T09:32:28.576Z,26.78
2022-11-12T09:35:17.803Z,26.81
2022-11-12T09:38:06.852Z,26.84
2022-11-12T09:41:12.056Z,26.88
2022-11-12T09:44:03.347Z,26.87
2022-11-12T09:46:56.003Z,26.88
2022-11-12T09:49:48.040Z,26.92
2022-11-12T09:52:37.905Z,26.96
2022-11-12T09:55:32.334Z,26.95
2022-11-12T09:58:21.401Z,26.97
2022-11-12T10:01:15.676Z,27.00
2022-11-12T10:04:17.859Z,26.96
2022-11-12T10:07:13.725Z,26.97
2022-11-12T10:10:05.644Z,26.97
2022-11-12T10:13:06.761Z,26.89
2022-11-12T10:16:20.401Z,26.87
2022-11-12T10:19:36.471Z,26.71
2022-11-12T10:22:38.403Z,26.65
2022-11-12T10:25:28.151Z,26.32
2022-11-12T10:28:26.851Z,26.15
2022-11-12T10:31:17.742Z,25.95
2022-11-12T10:34:18.653Z,25.84
2022-11-12T10:37:12.410Z,25.78
2022-11-12T10:40:01.239Z,25.77
2022-11-12T10:43:00.350Z,25.89
2022-11-12T10:45:53.087Z,25.89
2022-11-12T10:48:41.841Z,25.87
2022-11-12T10:51:36.395Z,25.94
2022-11-12T10:54:32.465Z,25.95
2022-11-12T10:57:22.564Z,25.97
2022-11-12T11:00:19.700Z,25.97
2022-11-12T11:03:19.182Z,25.82
2022-11-12T11:06:08.977Z,25.77
2022-11-12T11:09:10.974Z,25.79
2022-11-12T11:12:01.257Z,25.76
2022-11-12T11:15:07.434Z,25.86
2022-11-12T11:17:56.835Z,25.82
2022-11-12T11:20:49.119Z,25.79
2022-11-12T11:23:42.825Z,25.88
2022-11-12T11:26:38.330Z,25.83
2022-11-12T11:30:10.392Z,25.83
2022-11-12T11:33:16.870Z,25.94
2022-11-12T11:36:14.499Z,25.93
2022-11-12T11:39:07.068Z,25.95
2022-11-12T11:42:09.793Z,25.81
2022-11-12T11:45:06.926Z,25.91
2022-11-12T11:48:04.555Z,25.91
2022-11-12T11:50:59.519Z,25.94
2022-11-12T11:53:52.993Z,26.03
2022-11-12T11:56:44.570Z,26.08
2022-11-12T11:59:44.404Z,26.17
2022-11-12T12:02:56.062Z,26.15
2022-11-12T12:05:54.268Z,26.09
2022-11-12T12:08:59.947Z,26.04
2022-11-12T12:11:54.841Z,26.06
2022-11-12T12:14:50.618Z,26.03
2022-11-12T12:17:47.473Z,26.05
2022-11-12T12:20:44.164Z,26.13
2022-11-12T12:23:38.375Z,26.25
2022-11-12T12:26:30.288Z,26.22
2022-11-12T12:29:22.736Z,26.34
2022-11-12T12:32:19.323Z,26.32
2022-11-12T12:35:18.369Z,26.35
2022-11-12T12:38:13.104Z,26.48
2022-11-12T12:41:10.243Z,26.51
2022-11-12T12:44:01.467Z,26.46
2022-11-12T12:46:54.223Z,26.33
2022-11-12T12:49:43.595Z,26.33
2022-11-12T12:52:32.629Z,26.34
2022-11-12T12:55:40.470Z,26.29
2022-11-12T12:58:32.893Z,26.19
2022-11-12T13:01:31.537Z,26.31
2022-11-12T13:04:55.324Z,26.18
2022-11-12T13:07:48.531Z,26.31
2022-11-12T13:10:54.825Z,26.66
2022-11-12T13:13:46.152Z,26.82
2022-11-12T13:17:00.042Z,26.89
2022-11-12T13:20:19.692Z,26.97
2022-11-12T13:23:13.621Z,26.97
2022-11-12T13:26:39.762Z,27.03
2022-11-12T13:29:47.565Z,26.94
2022-11-12T13:32:43.067Z,26.51
2022-11-12T13:35:35.507Z,26.40
2022-11-12T13:38:24.616Z,26.31
2022-11-12T13:41:18.067Z,26.50
2022-11-12T13:44:08.400Z,26.82
2022-11-12T13:46:58.497Z,26.85
2022-11-12T13:49:48.709Z,27.03
2022-11-12T13:52:42.700Z,27.11
2022-11-12T13:55:31.819Z,27.03
2022-11-12T13:58:22.076Z,27.01
2022-11-12T14:01:13.675Z,27.08
2022-11-12T14:04:02.603Z,27.06
2022-11-12T14:06:53.033Z,27.27
2022-11-12T14:09:54.431Z,27.30
2022-11-12T14:12:55.475Z,27.31
2022-11-12T14:16:02.818Z,27.38
2022-11-12T14:19:33.507Z,27.43
2022-11-12T14:22:23.206Z,27.44
2022-11-12T14:25:19.769Z,27.44
2022-11-12T14:28:27.773Z,27.56
2022-11-12T14:31:17.195Z,27.53
2022-11-12T14:34:21.394Z,27.59
2022-11-12T14:37:22.101Z,27.63
2022-11-12T14:40:19.196Z,27.71
2022-11-12T14:43:07.920Z,27.74
2022-11-12T14:45:57.422Z,27.77
2022-11-12T14:48:49.220Z,27.65
2022-11-12T14:51:42.619Z,27.68
2022-11-12T14:54:33.953Z,27.64
2022-11-12T14:57:27.001Z,27.82
2022-11-12T15:00:19.791Z,27.97
2022-11-12T15:03:10.542Z,27.93
2022-11-12T15:06:01.632Z,27.84
2022-11-12T15:08:59.012Z,27.85
2022-11-12T15:11:49.488Z,27.82
2022-11-12T15:14:40.018Z,27.93
2022-11-12T15:17:31.954Z,27.92
2022-11-12T15:20:21.613Z,27.91
2022-11-12T15:23:18.754Z,27.89
2022-11-12T15:26:15.735Z,27.87
2022-11-12T15:29:15.216Z,27.88
2022-11-12T15:32:26.019Z,27.84
2022-11-12T15:35:38.434Z,27.75
2022-11-12T15:38:31.628Z,27.76
2022-11-12T15:41:24.170Z,27.69
2022-11-12T15:44:12.950Z,27.53
2022-11-12T15:47:02.180Z,27.56
2022-11-12T15:49:53.679Z,27.41
2022-11-12T15:52:42.826Z,27.46
2022-11-12T15:55:31.465Z,27.50
2022-11-12T15:58:22.501Z,27.35
2022-11-12T16:01:13.155Z,27.34
2022-11-12T16:04:01.912Z,27.50
2022-11-12T16:06:52.022Z,27.40
2022-11-12T16:09:40.755Z,26.84
2022-11-12T16:12:29.464Z,26.79
2022-11-12T16:15:20.609Z,27.08
2022-11-12T16:18:11.859Z,27.28
2022-11-12T16:21:00.492Z,27.35
2022-11-12T16:23:50.794Z,27.27
2022-11-12T16:26:39.850Z,27.28
2022-11-12T16:29:28.569Z,27.24
2022-11-12T16:32:17.169Z,26.78
2022-11-12T16:35:06.305Z,27.05
2022-11-12T16:37:56.310Z,27.33
2022-11-12T16:40:46.839Z,26.92
2022-11-12T16:43:35.607Z,26.96
2022-11-12T16:46:27.118Z,26.91
2022-11-12T16:49:16.771Z,26.73
2022-11-12T16:52:05.671Z,27.07
2022-11-12T16:54:54.477Z,27.23
2022-11-12T16:57:44.778Z,27.18
2022-11-12T17:00:33.580Z,27.19
2022-11-12T17:03:22.426Z,27.23
2022-11-12T17:06:11.296Z,27.18
2022-11-12T17:09:00.120Z,27.28
2022-11-12T17:11:49.232Z,27.24
2022-11-12T17:14:39.272Z,27.16
2022-11-12T17:17:27.943Z,27.17
2022-11-12T17:20:17.222Z,27.03
2022-11-12T17:23:06.004Z,27.07
2022-11-12T17:26:02.344Z,27.17
2022-11-12T17:28:57.530Z,27.10
2022-11-12T17:31:51.090Z,27.20
2022-11-12T17:34:39.844Z,27.19
2022-11-12T17:37:28.473Z,27.16
2022-11-12T17:40:17.640Z,27.25
2022-11-12T17:43:06.320Z,27.28
2022-11-12T17:45:55.907Z,27.28
2022-11-12T17:48:46.079Z,27.35
2022-11-12T17:51:34.722Z,27.35
2022-11-12T17:54:23.502Z,27.28
2022-11-12T17:57:12.137Z,27.36
2022-11-12T18:00:00.794Z,27.36
2022-11-12T18:02:49.495Z,27.23
2022-11-12T18:05:39.598Z,26.82
2022-11-12T18:08:28.421Z,26.71
2022-11-12T18:11:16.996Z,26.72
2022-11-12T18:14:08.049Z,27.10
2022-11-12T18:16:58.359Z,27.23
2022-11-12T18:19:47.212Z,27.33
2022-11-12T18:22:43.589Z,27.36
2022-11-12T18:25:33.530Z,27.40
2022-11-12T18:28:22.117Z,27.43
2022-11-12T18:31:12.876Z,27.31
2022-11-12T18:34:01.555Z,27.25
2022-11-12T18:36:50.220Z,27.29
2022-11-12T18:39:40.394Z,27.26
2022-11-12T18:42:29.550Z,27.23
2022-11-12T18:45:18.533Z,27.15
2022-11-12T18:48:07.695Z,27.08
2022-11-12T18:50:59.571Z,27.08
2022-11-12T18:53:48.322Z,26.90
2022-11-12T18:56:40.028Z,26.84
2022-11-12T18:59:30.823Z,26.79
2022-11-12T19:02:19.776Z,26.63
2022-11-12T19:05:09.160Z,26.60
2022-11-12T19:07:57.901Z,26.63
2022-11-12T19:10:46.867Z,26.64
2022-11-12T19:13:38.153Z,26.65
2022-11-12T19:16:26.908Z,26.77
2022-11-12T19:19:16.288Z,27.03
2022-11-12T19:22:05.245Z,27.08
2022-11-12T19:24:54.625Z,27.14
2022-11-12T19:27:43.505Z,26.88
2022-11-12T19:30:34.290Z,26.75
2022-11-12T19:33:23.279Z,27.01
2022-11-12T19:36:15.293Z,27.09
2022-11-12T19:39:04.440Z,26.99
2022-11-12T19:41:54.625Z,27.12
2022-11-12T19:44:43.918Z,26.77
2022-11-12T19:47:35.691Z,26.63
2022-11-12T19:50:49.313Z,26.62
2022-11-12T19:53:40.902Z,26.61
2022-11-12T19:56:30.616Z,26.70
2022-11-12T19:59:19.774Z,26.66
2022-11-12T20:02:09.517Z,26.60
2022-11-12T20:04:59.614Z,26.56
2022-11-12T20:07:49.590Z,26.53
2022-11-12T20:10:38.811Z,26.59
2022-11-12T20:13:27.697Z,26.62
2022-11-12T20:16:23.950Z,26.66
2022-11-12T20:19:15.923Z,26.59
2022-11-12T20:22:06.297Z,26.54
2022-11-12T20:24:55.271Z,26.60
2022-11-12T20:27:43.908Z,26.58
2022-11-12T20:30:32.576Z,26.48
2022-11-12T20:33:21.191Z,26.46
2022-11-12T20:36:11.315Z,26.43
2022-11-12T20:39:02.279Z,26.50
2022-11-12T20:41:50.923Z,26.57
2022-11-12T20:44:39.607Z,26.55
2022-11-12T20:47:28.270Z,26.56
2022-11-12T20:50:16.975Z,26.54
2022-11-12T20:53:05.685Z,26.52
2022-11-12T20:55:56.778Z,26.44
2022-11-12T20:58:45.829Z,26.66
2022-11-12T21:01:34.547Z,26.87
2022-11-12T21:04:23.222Z,26.78
2022-11-12T21:07:12.277Z,26.76
2022-11-12T21:10:01.110Z,26.74
2022-11-12T21:12:51.389Z,26.78
2022-11-12T21:15:39.985Z,26.74
2022-11-12T21:18:29.141Z,26.67
2022-11-12T21:21:21.111Z,26.71
2022-11-12T21:24:10.101Z,26.67
2022-11-12T21:26:58.712Z,26.64
2022-11-12T21:29:49.479Z,26.61
2022-11-12T21:32:38.394Z,26.59
2022-11-12T21:35:27.270Z,26.58
2022-11-12T21:38:15.841Z,26.57
2022-11-12T21:41:06.032Z,26.43
2022-11-12T21:43:55.267Z,26.38
2022-11-12T21:46:45.343Z,26.38
2022-11-12T21:49:33.941Z,26.36
2022-11-12T21:52:22.628Z,26.30
2022-11-12T21:55:11.406Z,26.28
2022-11-12T21:57:59.994Z,26.28
2022-11-12T22:00:48.711Z,26.22
2022-11-12T22:03:39.147Z,26.23
2022-11-12T22:06:29.986Z,26.24
2022-11-12T22:09:18.571Z,26.22
2022-11-12T22:12:07.420Z,26.22
2022-11-12T22:14:56.028Z,26.19
2022-11-12T22:17:44.689Z,26.12
2022-11-12T22:20:34.656Z,26.05
2022-11-12T22:23:23.234Z,26.01
2022-11-12T22:26:13.242Z,26.01
2022-11-12T22:29:01.957Z,25.94
2022-11-12T22:31:50.473Z,25.92
2022-11-12T22:34:39.125Z,25.89
2022-11-12T22:37:29.141Z,25.84
2022-11-12T22:40:17.771Z,25.80
2022-11-12T22:43:06.426Z,25.81
2022-11-12T22:45:55.004Z,25.77
2022-11-12T22:48:43.785Z,25.74
2022-11-12T22:51:33.818Z,25.73
2022-11-12T22:54:23.786Z,25.68
2022-11-12T22:57:12.383Z,25.69
2022-11-12T23:00:01.097Z,25.66
2022-11-12T23:02:49.696Z,25.67
2022-11-12T23:05:38.407Z,25.63
2022-11-12T23:08:27.591Z,25.57
2022-11-12T23:11:19.822Z,25.64
2022-11-12T23:14:08.463Z,25.61
2022-11-12T23:17:00.113Z,25.59
2022-11-12T23:19:48.701Z,25.59
2022-11-12T23:22:37.272Z,25.61
2022-11-12T23:25:25.889Z,25.60
2022-11-12T23:28:16.157Z,25.55
2022-11-12T23:31:06.152Z,25.51
2022-11-12T23:33:56.038Z,25.53
2022-11-12T23:36:44.636Z,25.55
2022-11-12T23:39:33.268Z,25.57
2022-11-12T23:42:21.878Z,25.54
2022-11-12T23:45:12.433Z,25.52
2022-11-12T23:48:01.127Z,25.52
2022-11-12T23:50:51.262Z,25.51
2022-11-12T23:53:40.838Z,25.48
2022-11-12T23:56:29.437Z,25.46
2022-11-12T23:59:18.088Z,25.49
